Time;durP1;ratioP1;P1;durP2;ratioP2;P2;SDS_P1;SDS_P2;PMS_P1;PMS_P2;Temp;Humidity;BMP_temperature;BMP_pressure;BME280_temperature;BME280_humidity;BME280_pressure;Samples;Min_cycle;Max_cycle;Signal;HPM_P1;HPM_P2
2023/05/22 00:00:51;;;;;;;9.00;5.40;;;435.80;2355.20;;;;;;5039637;28;20038;-80
2023/05/22 00:03:18;;;;;;;10.00;5.57;;;435.90;2355.20;;;;;;5038190;28;20061;-83
2023/05/22 00:05:44;;;;;;;9.05;6.03;;;435.90;2355.20;;;;;;5046005;28;20081;-82
2023/05/22 00:08:12;;;;;;;8.32;6.18;;;435.90;2355.20;;;;;;5046353;28;20018;-79
2023/05/22 00:10:39;;;;;;;8.15;5.78;;;435.80;2355.20;;;;;;5046320;28;20335;-80
2023/05/22 00:13:05;;;;;;;7.70;5.95;;;435.80;2355.20;;;;;;5032189;28;20061;-82
2023/05/22 00:15:31;;;;;;;7.60;6.00;;;;;;;;;;5041570;28;20039;-79
2023/05/22 00:17:57;;;;;;;8.63;6.00;;;;;;;;;;5037169;28;20005;-80
2023/05/22 00:20:23;;;;;;;9.90;6.45;;;;;;;;;;5042001;28;20006;-78
2023/05/22 00:22:49;;;;;;;9.35;6.18;;;;;;;;;;5039390;28;20054;-77
2023/05/22 00:25:18;;;;;;;9.68;6.50;;;;;;;;;;5043702;28;19998;-81
2023/05/22 00:27:43;;;;;;;11.55;6.22;;;435.80;2355.20;;;;;;5041929;28;20038;-79
2023/05/22 00:30:10;;;;;;;8.82;6.05;;;435.50;2355.20;;;;;;5041898;28;20009;-81
2023/05/22 00:32:35;;;;;;;8.85;6.10;;;435.40;2355.20;;;;;;5039609;28;20032;-81
2023/05/22 00:35:03;;;;;;;7.93;6.30;;;435.20;2355.20;;;;;;5041441;28;20013;-79
2023/05/22 00:37:30;;;;;;;9.32;6.28;;;435.20;2355.20;;;;;;5036822;28;20020;-78
2023/05/22 00:39:56;;;;;;;10.55;7.00;;;;;;;;;;5036435;28;20030;-78
2023/05/22 00:42:22;;;;;;;8.13;6.45;;;435.50;2355.20;;;;;;5043256;28;20002;-78
2023/05/22 00:44:48;;;;;;;11.50;6.30;;;435.40;2355.20;;;;;;5042733;28;20013;-77
2023/05/22 00:47:14;;;;;;;8.30;6.05;;;435.20;2355.20;;;;;;5039370;28;20030;-80
2023/05/22 00:49:42;;;;;;;9.35;6.13;;;435.20;2355.20;;;;;;5047922;28;20009;-80
2023/05/22 00:52:10;;;;;;;12.10;6.07;;;435.30;2355.20;;;;;;5041674;28;20034;-78
2023/05/22 00:54:36;;;;;;;8.88;6.50;;;435.30;2355.20;;;;;;5044955;28;20032;-80
2023/05/22 00:57:03;;;;;;;14.07;6.65;;;435.30;2355.20;;;;;;5040039;28;19997;-78
2023/05/22 00:59:30;;;;;;;8.35;6.55;;;435.30;2355.20;;;;;;5033686;28;20006;-79
2023/05/22 01:01:56;;;;;;;11.02;6.80;;;435.20;2355.20;;;;;;5035079;28;20037;-78
2023/05/22 01:04:22;;;;;;;11.75;6.75;;;435.20;2355.20;;;;;;5048606;28;20109;-77
2023/05/22 01:06:48;;;;;;;12.63;6.20;;;435.30;2355.20;;;;;;5041376;28;20018;-77
2023/05/22 01:09:14;;;;;;;8.45;6.32;;;435.30;2355.20;;;;;;5045774;28;20057;-77
2023/05/22 01:12:16;;;;;;;11.10;6.82;;;435.30;2355.20;;;;;;5043560;28;20018;-77
2023/05/22 01:15:04;;;;;;;11.20;6.72;;;435.20;2355.20;;;;;;5003960;28;20019;-77
2023/05/22 01:17:36;;;;;;;9.13;6.88;;;435.20;2355.20;;;;;;5002413;28;20006;-81
2023/05/22 01:20:27;;;;;;;9.43;6.75;;;435.20;2355.20;;;;;;5005382;28;20041;-79
2023/05/22 01:23:22;;;;;;;9.10;7.22;;;435.20;2355.20;;;;;;5000934;28;20002;-81
2023/05/22 01:26:08;;;;;;;9.00;6.70;;;410.50;2355.20;;;;;;5001438;28;20010;-78
2023/05/22 01:28:44;;;;;;;10.35;7.00;;;410.40;2355.20;;;;;;5009506;28;19999;-78
2023/05/22 01:31:18;;;;;;;8.93;6.57;;;410.40;2355.20;;;;;;5003162;28;20025;-78
2023/05/22 01:34:03;;;;;;;7.60;6.28;;;410.40;2355.20;;;;;;5003071;28;19999;-80
2023/05/22 01:36:33;;;;;;;8.77;6.40;;;410.40;2355.20;;;;;;5002457;28;20030;-81
2023/05/22 01:39:00;;;;;;;10.65;7.05;;;410.40;2355.20;;;;;;5009452;28;20042;-80
2023/05/22 01:41:28;;;;;;;12.48;7.20;;;410.40;2355.20;;;;;;5009267;28;20015;-79
2023/05/22 01:43:54;;;;;;;10.60;6.90;;;410.30;2355.20;;;;;;5004850;28;19999;-83
2023/05/22 01:46:20;;;;;;;9.00;6.93;;;409.90;2355.20;;;;;;5008279;28;20022;-82
2023/05/22 01:48:46;;;;;;;10.50;6.82;;;410.30;2355.20;;;;;;4991801;28;20030;-79
2023/05/22 01:51:38;;;;;;;15.63;7.30;;;410.20;2355.20;;;;;;5025599;28;20041;-80
2023/05/22 01:54:17;;;;;;;10.13;6.95;;;410.20;2355.20;;;;;;5041674;28;20035;-81
2023/05/22 01:57:02;;;;;;;9.93;7.13;;;410.10;2355.20;;;;;;5048443;28;20010;-81
2023/05/22 01:59:47;;;;;;;;;;;410.10;2355.20;;;;;;5047885;28;20006;-81
2023/05/22 02:02:16;;;;;;;10.38;7.18;;;410.10;2355.20;;;;;;5039311;28;19920;-77
2023/05/22 02:04:48;;;;;;;11.65;7.43;;;410.00;2355.20;;;;;;5040367;28;19998;-79
2023/05/22 02:07:16;;;;;;;12.95;7.78;;;409.90;2355.20;;;;;;5049204;28;20005;-79
2023/05/22 02:09:44;;;;;;;11.60;7.65;;;;;;;;;;5047839;28;20006;-78
2023/05/22 02:12:10;;;;;;;10.52;7.57;;;;;;;;;;5042312;28;20065;-79
2023/05/22 02:14:37;;;;;;;9.82;7.72;;;;;;;;;;5044141;28;19994;-79
2023/05/22 02:17:04;;;;;;;11.10;7.40;;;;;;;;;;5047196;28;20006;-79
2023/05/22 02:19:34;;;;;;;10.05;7.10;;;;;;;;;;5048868;28;20057;-80
2023/05/22 02:22:00;;;;;;;12.90;7.68;;;;;;;;;;5038653;28;20009;-83
2023/05/22 02:24:26;;;;;;;10.68;7.45;;;;;;;;;;5047936;28;20128;-80
2023/05/22 02:26:52;;;;;;;13.27;7.35;;;410.10;2355.20;;;;;;5052974;28;20001;-79
2023/05/22 02:29:17;;;;;;;13.18;7.93;;;409.90;2355.20;;;;;;5047161;28;19998;-83
2023/05/22 02:31:43;;;;;;;11.52;7.18;;;409.70;2355.20;;;;;;5050881;28;19997;-82
2023/05/22 02:34:09;;;;;;;10.82;7.47;;;409.70;2176.00;;;;;;5050960;28;20021;-83
2023/05/22 02:36:37;;;;;;;10.52;7.70;;;409.70;2355.20;;;;;;5050438;28;20025;-80
2023/05/22 02:39:03;;;;;;;11.05;7.95;;;409.70;2355.20;;;;;;5037450;28;20006;-81
2023/05/22 02:41:29;;;;;;;11.95;8.73;;;409.60;2355.20;;;;;;5049522;28;20002;-82
2023/05/22 02:43:55;;;;;;;14.32;8.90;;;409.60;2355.20;;;;;;5052008;28;20006;-80
2023/05/22 02:46:21;;;;;;;11.85;8.50;;;409.60;2355.20;;;;;;5054825;28;20005;-84
2023/05/22 02:48:46;;;;;;;12.52;8.15;;;384.90;2329.60;;;;;;5050818;28;19998;-82
2023/05/22 02:54:34;;;;;;;11.10;8.83;;;384.80;2329.60;;;;;;5049053;28;20065;-84
2023/05/22 02:57:01;;;;;;;18.58;8.75;;;384.60;2329.60;;;;;;5048258;28;20275;-77
2023/05/22 02:59:27;;;;;;;13.10;9.40;;;384.70;2329.60;;;;;;5047154;28;20014;-83
2023/05/22 03:01:54;;;;;;;12.93;8.77;;;384.60;2150.40;;;;;;5050529;28;20025;-81
2023/05/22 03:04:19;;;;;;;11.30;8.80;;;384.60;2329.60;;;;;;5048623;28;20007;-84
2023/05/22 03:06:45;;;;;;;12.15;9.18;;;384.70;2329.60;;;;;;5053542;28;20016;-83
2023/05/22 03:09:12;;;;;;;13.88;9.50;;;384.70;2329.60;;;;;;5049507;28;20006;-82
2023/05/22 03:11:37;;;;;;;11.80;8.93;;;384.60;2048.00;;;;;;5044621;28;20010;-81
2023/05/22 03:14:03;;;;;;;14.40;9.18;;;384.60;2329.60;;;;;;5047944;28;20064;-83
2023/05/22 03:16:29;;;;;;;15.00;9.30;;;384.60;2329.60;;;;;;5053635;28;20045;-81
2023/05/22 03:19:09;;;;;;;16.23;9.05;;;384.50;2329.60;;;;;;5049706;28;20069;-81
2023/05/22 03:21:35;;;;;;;12.68;8.95;;;384.50;2329.60;;;;;;5052236;28;20025;-79
2023/05/22 03:24:01;;;;;;;11.15;9.15;;;384.40;2329.60;;;;;;5052378;28;20020;-80
2023/05/22 03:26:27;;;;;;;17.55;9.35;;;384.50;2329.60;;;;;;5047227;28;20024;-78
2023/05/22 03:28:53;;;;;;;12.02;8.77;;;384.50;2329.60;;;;;;5047853;28;20029;-77
2023/05/22 03:31:19;;;;;;;14.55;9.00;;;384.80;2329.60;;;;;;5048936;28;20008;-80
2023/05/22 03:33:44;;;;;;;12.75;9.00;;;384.50;2329.60;;;;;;5040765;28;20002;-83
2023/05/22 03:36:10;;;;;;;13.25;9.20;;;384.50;2329.60;;;;;;5045931;28;20021;-84
2023/05/22 03:39:15;;;;;;;14.82;10.02;;;384.60;2329.60;;;;;;5045880;28;20029;-80
2023/05/22 03:41:41;;;;;;;14.65;9.73;;;384.60;2329.60;;;;;;5049064;28;20013;-80
2023/05/22 03:44:07;;;;;;;14.60;9.13;;;384.60;2329.60;;;;;;5050111;28;20005;-79
2023/05/22 03:46:32;;;;;;;13.50;8.95;;;384.60;2329.60;;;;;;5048971;28;20021;-79
2023/05/22 03:49:00;;;;;;;14.80;9.93;;;384.70;2329.60;;;;;;5049994;28;20004;-81
2023/05/22 03:51:35;;;;;;;14.30;8.98;;;384.70;2329.60;;;;;;5041119;28;20080;-81
2023/05/22 03:54:02;;;;;;;15.63;9.55;;;384.80;2329.60;;;;;;5053148;28;20089;-80
2023/05/22 03:56:28;;;;;;;13.68;9.50;;;384.90;2329.60;;;;;;5046564;28;20033;-80
2023/05/22 03:58:55;;;;;;;14.77;9.70;;;384.80;2329.60;;;;;;5046152;28;20009;-79
2023/05/22 04:01:21;;;;;;;15.68;9.23;;;384.80;2329.60;;;;;;5046331;28;19998;-78
2023/05/22 04:03:46;;;;;;;12.68;9.60;;;384.90;2329.60;;;;;;5046391;28;20044;-79
2023/05/22 04:06:12;;;;;;;14.77;9.70;;;384.90;2329.60;;;;;;5044978;28;20044;-78
2023/05/22 04:08:38;;;;;;;13.18;9.27;;;384.90;2329.60;;;;;;5044804;28;20009;-78
2023/05/22 04:11:04;;;;;;;14.13;10.27;;;384.90;2329.60;;;;;;5046593;28;20025;-78
2023/05/22 04:13:30;;;;;;;14.68;9.45;;;384.90;2329.60;;;;;;5047147;28;20033;-78
2023/05/22 04:15:57;;;;;;;17.92;10.55;;;384.90;2329.60;;;;;;5048950;28;20095;-77
2023/05/22 04:18:23;;;;;;;15.88;9.80;;;384.90;2329.60;;;;;;5046865;28;20026;-77
2023/05/22 04:20:50;;;;;;;12.90;10.10;;;409.60;2355.20;;;;;;5047058;28;20010;-78
2023/05/22 04:23:16;;;;;;;11.95;8.90;;;409.70;2355.20;;;;;;5047887;28;20036;-77
2023/05/22 04:25:42;;;;;;;15.77;9.82;;;409.70;2355.20;;;;;;5048085;28;20025;-79
2023/05/22 04:28:09;;;;;;;14.07;9.77;;;409.80;2355.20;;;;;;5046120;28;20069;-78
2023/05/22 04:30:38;;;;;;;11.98;9.40;;;409.90;2355.20;;;;;;5045241;28;20006;-79
2023/05/22 04:33:05;;;;;;;12.38;9.48;;;409.90;2355.20;;;;;;5048822;28;20001;-78
2023/05/22 04:35:33;;;;;;;14.57;9.80;;;410.00;2355.20;;;;;;5048707;28;20039;-80
2023/05/22 04:38:02;;;;;;;12.98;9.85;;;410.10;2355.20;;;;;;5047158;28;20032;-77
2023/05/22 04:40:29;;;;;;;13.98;9.13;;;410.30;2355.20;;;;;;5041687;28;20036;-78
2023/05/22 04:42:58;;;;;;;15.52;10.27;;;410.20;2355.20;;;;;;5051295;28;19998;-78
2023/05/22 04:45:25;;;;;;;16.70;9.10;;;410.20;2355.20;;;;;;5042492;28;20022;-79
2023/05/22 04:47:52;;;;;;;15.25;10.07;;;410.30;2355.20;;;;;;5043157;28;19998;-78
2023/05/22 04:50:19;;;;;;;15.38;9.68;;;410.30;2355.20;;;;;;5048563;28;20045;-80
2023/05/22 04:52:45;;;;;;;13.18;10.10;;;410.40;2355.20;;;;;;5052011;28;20029;-82
2023/05/22 04:55:13;;;;;;;13.25;9.80;;;410.00;2355.20;;;;;;5047994;28;20040;-82
2023/05/22 04:57:43;;;;;;;14.20;10.30;;;435.80;2355.20;;;;;;5045582;28;20044;-80
2023/05/22 05:00:09;;;;;;;14.93;9.77;;;435.30;2355.20;;;;;;5045191;28;20002;-78
2023/05/22 05:02:35;;;;;;;13.52;9.63;;;435.30;2355.20;;;;;;5042527;28;20077;-79
2023/05/22 05:05:01;;;;;;;12.13;10.02;;;435.40;2355.20;;;;;;5044608;28;20008;-78
2023/05/22 05:07:26;;;;;;;16.45;10.20;;;435.60;2304.00;;;;;;5037260;28;20002;-78
2023/05/22 05:09:52;;;;;;;15.65;9.85;;;435.60;2355.20;;;;;;5046760;28;20022;-78
2023/05/22 05:12:18;;;;;;;10.68;9.05;;;435.70;2022.40;;;;;;5044678;28;20069;-79
2023/05/22 05:14:44;;;;;;;16.88;9.20;;;436.00;2355.20;;;;;;5047987;28;20045;-80
2023/05/22 05:17:09;;;;;;;15.30;9.20;;;435.90;2355.20;;;;;;5047703;28;20086;-79
2023/05/22 05:19:35;;;;;;;12.90;9.30;;;436.00;2355.20;;;;;;5042958;28;20077;-79
2023/05/22 05:22:02;;;;;;;12.23;9.02;;;436.10;2355.20;;;;;;5047989;28;20056;-81
2023/05/22 05:24:29;;;;;;;15.32;8.98;;;460.80;2380.80;;;;;;5049317;28;20028;-81
2023/05/22 05:26:55;;;;;;;11.88;8.85;;;460.90;2380.80;;;;;;5049003;28;20057;-81
2023/05/22 05:29:21;;;;;;;11.40;8.07;;;461.00;2380.80;;;;;;5048880;28;20053;-78
2023/05/22 05:31:50;;;;;;;11.02;8.30;;;461.00;2380.80;;;;;;5047468;28;20037;-82
2023/05/22 05:34:18;;;;;;;13.00;8.27;;;461.00;2380.80;;;;;;5046226;28;20006;-87
2023/05/22 05:36:46;;;;;;;9.93;7.65;;;461.20;2380.80;;;;;;5053207;28;20024;-83
2023/05/22 05:39:14;;;;;;;13.23;8.45;;;461.30;2380.80;;;;;;5049493;28;20014;-85
2023/05/22 05:41:40;;;;;;;11.43;7.22;;;461.40;2380.80;;;;;;5045516;28;20013;-85
2023/05/22 05:44:09;;;;;;;8.75;7.22;;;461.40;2380.80;;;;;;5046146;28;20029;-85
2023/05/22 05:46:39;;;;;;;7.88;6.32;;;461.50;2380.80;;;;;;5043638;28;20850;-83
2023/05/22 05:49:10;;;;;;;12.95;6.97;;;;;;;;;;5045578;28;20032;-85
2023/05/22 05:51:39;;;;;;;9.55;6.65;;;486.50;2380.80;;;;;;5032662;28;20038;-88
2023/05/22 05:54:05;;;;;;;11.82;6.30;;;;;;;;;;5049436;28;20002;-82
2023/05/22 05:56:31;;;;;;;8.73;6.38;;;;;;;;;;5043154;28;20006;-86
2023/05/22 05:58:57;;;;;;;9.85;6.00;;;;;;;;;;5045760;28;20005;-85
2023/05/22 06:01:25;;;;;;;11.68;6.10;;;487.20;2380.80;;;;;;5046237;28;19994;-81
2023/05/22 06:03:51;;;;;;;10.15;6.30;;;487.10;2380.80;;;;;;5050049;28;19994;-81
2023/05/22 06:06:17;;;;;;;10.95;6.03;;;487.20;2380.80;;;;;;5048830;28;20005;-80
2023/05/22 06:08:43;;;;;;;10.27;6.10;;;487.00;2380.80;;;;;;5051362;28;20032;-81
2023/05/22 06:11:09;;;;;;;7.85;6.20;;;487.10;2380.80;;;;;;5049463;28;20010;-81
2023/05/22 06:13:35;;;;;;;9.25;6.05;;;;;;;;;;5048129;28;19997;-85
2023/05/22 06:16:01;;;;;;;7.80;5.90;;;;;;;;;;5045381;28;20076;-85
2023/05/22 06:18:27;;;;;;;8.82;5.78;;;;;;;;;;5049929;28;20006;-87
2023/05/22 06:20:55;;;;;;;9.23;5.75;;;;;;;;;;5051062;28;20014;-81
2023/05/22 06:23:21;;;;;;;9.73;5.88;;;;;;;;;;5050221;28;19994;-84
2023/05/22 06:25:47;;;;;;;9.02;5.80;;;;;;;;;;5051655;28;20014;-85
2023/05/22 06:28:13;;;;;;;8.05;5.95;;;;;;;;;;5048454;28;20024;-85
2023/05/22 06:30:39;;;;;;;7.95;5.30;;;;;;;;;;5045980;28;20014;-81
2023/05/22 06:33:06;;;;;;;9.32;6.00;;;;;;;;;;5049636;28;19990;-84
2023/05/22 06:35:32;;;;;;;9.70;5.50;;;537.70;2406.40;;;;;;5050607;28;20009;-82
2023/05/22 06:37:58;;;;;;;9.10;6.15;;;537.60;2406.40;;;;;;5050605;28;19997;-81
2023/05/22 06:40:24;;;;;;;8.85;5.20;;;;;;;;;;5049622;28;20021;-85
2023/05/22 06:42:50;;;;;;;9.48;5.75;;;537.90;2406.40;;;;;;5048442;28;20006;-85
2023/05/22 06:45:18;;;;;;;9.18;5.30;;;537.90;2406.40;;;;;;5047040;28;20066;-81
2023/05/22 06:47:44;;;;;;;7.30;5.32;;;537.90;2406.40;;;;;;5049368;28;20005;-84
2023/05/22 06:50:11;;;;;;;9.27;5.40;;;;;;;;;;5046569;28;20044;-85
2023/05/22 06:52:37;;;;;;;6.55;5.70;;;538.10;2406.40;;;;;;5046593;28;20132;-84
2023/05/22 06:55:05;;;;;;;7.53;5.30;;;538.00;2406.40;;;;;;5048465;28;20050;-83
2023/05/22 06:57:31;;;;;;;8.07;5.28;;;538.00;2406.40;;;;;;5047999;28;20006;-82
2023/05/22 06:59:57;;;;;;;10.20;6.68;;;538.20;2406.40;;;;;;5048907;28;20017;-86
2023/05/22 07:02:23;;;;;;;7.75;5.18;;;538.20;2406.40;;;;;;5043455;28;20014;-84
2023/05/22 07:04:51;;;;;;;8.02;5.05;;;;;;;;;;5048930;28;20025;-84
2023/05/22 07:07:16;;;;;;;8.85;5.20;;;563.40;2432.00;;;;;;5047064;28;20002;-80
2023/05/22 07:09:42;;;;;;;6.25;5.13;;;563.20;2432.00;;;;;;5043599;28;20002;-81
2023/05/22 07:12:08;;;;;;;7.95;4.65;;;563.50;2432.00;;;;;;5045672;28;20006;-81
2023/05/22 07:14:34;;;;;;;7.03;5.10;;;563.60;2432.00;;;;;;5047869;28;20032;-82
2023/05/22 07:17:00;;;;;;;8.23;4.93;;;564.00;2432.00;;;;;;5042154;28;20018;-84
2023/05/22 07:19:26;;;;;;;6.05;5.25;;;563.90;2432.00;;;;;;5047267;28;20081;-85
2023/05/22 07:21:51;;;;;;;6.05;4.90;;;588.80;2432.00;;;;;;5045749;28;20021;-82
2023/05/22 07:24:17;;;;;;;6.30;4.75;;;588.80;2432.00;;;;;;5047604;28;20320;-82
2023/05/22 07:26:46;;;;;;;7.32;5.20;;;564.10;2432.00;;;;;;5048704;28;20020;-83
2023/05/22 07:29:15;;;;;;;6.07;5.10;;;564.10;2432.00;;;;;;5046887;28;20036;-81
2023/05/22 07:31:41;;;;;;;7.55;5.30;;;564.10;2432.00;;;;;;5046610;28;20025;-79
2023/05/22 07:34:08;;;;;;;7.70;4.65;;;588.80;2432.00;;;;;;5042636;28;20012;-82
2023/05/22 07:36:33;;;;;;;9.05;5.10;;;589.20;2432.00;;;;;;5048652;28;20032;-83
2023/05/22 07:39:00;;;;;;;10.10;5.60;;;;;;;;;;5048399;28;20069;-82
2023/05/22 07:41:26;;;;;;;8.60;5.38;;;;;;;;;;5044324;28;20008;-81
2023/05/22 07:43:52;;;;;;;7.22;4.97;;;;;;;;;;5047129;28;20010;-81
2023/05/22 07:46:18;;;;;;;7.95;5.70;;;;;;;;;;5048219;28;20028;-80
2023/05/22 07:48:45;;;;;;;8.30;5.10;;;;;;;;;;5042304;28;20009;-80
2023/05/22 07:51:12;;;;;;;9.80;6.65;;;614.40;2380.80;;;;;;5048525;28;20034;-81
2023/05/22 07:53:38;;;;;;;9.05;5.68;;;589.50;2380.80;;;;;;5047191;28;20005;-82
2023/05/22 07:56:04;;;;;;;9.90;5.07;;;589.40;2432.00;;;;;;5046594;28;20030;-81
2023/05/22 07:58:30;;;;;;;8.43;5.88;;;589.30;2432.00;;;;;;5043371;28;20025;-82
2023/05/22 08:00:56;;;;;;;6.03;5.30;;;589.60;2432.00;;;;;;5046320;28;20069;-82
2023/05/22 08:03:22;;;;;;;6.55;5.70;;;;;;;;;;5047187;28;20130;-81
2023/05/22 08:05:48;;;;;;;8.75;6.07;;;;;;;;;;5047043;28;20018;-80
2023/05/22 08:08:14;;;;;;;10.40;5.60;;;;;;;;;;5043846;28;20002;-80
2023/05/22 08:10:40;;;;;;;7.10;5.95;;;;;;;;;;5045602;28;20009;-81
2023/05/22 08:13:06;;;;;;;8.30;5.32;;;;;;;;;;5043254;28;20009;-80
2023/05/22 08:15:33;;;;;;;8.82;7.45;;;;;;;;;;5042186;28;20045;-81
2023/05/22 08:17:59;;;;;;;7.53;5.90;;;;;;;;;;5044263;28;19994;-77
2023/05/22 08:20:25;;;;;;;6.50;5.80;;;;;;;;;;5035587;28;20017;-77
2023/05/22 08:22:53;;;;;;;6.80;5.93;;;;;;;;;;5038703;28;20065;-77
2023/05/22 08:25:19;;;;;;;8.18;6.05;;;;;;;;;;5042678;28;20021;-78
2023/05/22 08:27:45;;;;;;;12.20;10.77;;;;;;;;;;5048576;28;20013;-78
2023/05/22 08:30:11;;;;;;;12.02;9.75;;;;;;;;;;5026622;28;20132;-77
2023/05/22 08:32:37;;;;;;;10.45;7.82;;;;;;;;;;5044075;28;20025;-78
2023/05/22 08:35:04;;;;;;;8.38;7.55;;;;;;;;;;5049085;28;20025;-77
2023/05/22 08:37:30;;;;;;;10.75;9.70;;;;;;;;;;5042300;28;20013;-78
2023/05/22 08:39:56;;;;;;;12.85;11.75;;;;;;;;;;5037051;28;20006;-78
2023/05/22 08:42:22;;;;;;;13.95;12.85;;;;;;;;;;5047179;28;20005;-77
2023/05/22 08:44:48;;;;;;;10.27;9.32;;;;;;;;;;5044303;28;20020;-78
2023/05/22 08:47:15;;;;;;;9.73;8.63;;;;;;;;;;5045833;28;20024;-77
2023/05/22 08:49:41;;;;;;;14.23;13.02;;;;;;;;;;5045037;28;20002;-78
2023/05/22 08:52:18;;;;;;;13.52;12.23;;;;;;;;;;5045940;28;20036;-77
2023/05/22 08:54:54;;;;;;;12.10;11.10;;;666.00;1868.80;;;;;;5046709;28;20017;-76
2023/05/22 08:57:20;;;;;;;12.95;11.85;;;665.90;1868.80;;;;;;5048278;28;20017;-77
2023/05/22 08:59:47;;;;;;;12.65;11.57;;;666.50;1715.20;;;;;;5047641;28;20018;-77
2023/05/22 09:02:15;;;;;;;12.02;11.07;;;666.50;1740.80;;;;;;5033884;28;20017;-77
2023/05/22 09:04:41;;;;;;;14.05;12.95;;;691.30;1766.40;;;;;;5041145;28;20001;-76
2023/05/22 09:07:07;;;;;;;11.75;10.73;;;691.30;1689.60;;;;;;5040581;28;20025;-77
2023/05/22 09:09:40;;;;;;;12.05;10.90;;;691.70;1638.40;;;;;;5039812;28;20002;-77
2023/05/22 09:12:08;;;;;;;14.13;13.02;;;691.70;1689.60;;;;;;5048221;28;20229;-77
2023/05/22 09:14:43;;;;;;;15.82;14.63;;;;;;;;;;5047188;28;20319;-76
2023/05/22 09:17:13;;;;;;;14.55;13.35;;;691.60;1638.40;;;;;;5046376;28;20029;-77
2023/05/22 09:19:44;;;;;;;22.58;20.95;;;666.50;1689.60;;;;;;5042337;28;20065;-77
2023/05/22 09:22:10;;;;;;;19.50;18.10;;;666.50;1664.00;;;;;;5042778;28;20009;-77
2023/05/22 09:24:41;;;;;;;26.17;24.13;;;666.40;1689.60;;;;;;5043883;28;20002;-77
2023/05/22 09:27:07;;;;;;;13.60;12.27;;;666.10;1689.60;;;;;;5044117;28;20013;-77
2023/05/22 09:29:54;;;;;;;23.40;21.80;;;691.40;1689.60;;;;;;5044964;28;20069;-77
2023/05/22 09:32:19;;;;;;;25.60;23.88;;;691.30;1612.80;;;;;;5044046;28;20010;-77
2023/05/22 09:34:46;;;;;;;31.05;28.90;;;666.50;1612.80;;;;;;5042855;28;20033;-76
2023/05/22 09:37:15;;;;;;;22.48;20.92;;;666.40;1612.80;;;;;;5046058;28;20024;-77
2023/05/22 09:39:47;;;;;;;23.05;21.25;;;666.50;1587.20;;;;;;5040676;28;20080;-78
2023/05/22 09:42:16;;;;;;;25.23;23.40;;;666.40;1587.20;;;;;;5035620;28;20008;-77
2023/05/22 09:44:47;;;;;;;22.10;20.27;;;666.40;1689.60;;;;;;5035859;28;19998;-77
2023/05/22 09:47:13;;;;;;;20.75;19.13;;;691.30;1638.40;;;;;;5036216;28;20012;-77
2023/05/22 09:49:44;;;;;;;25.23;23.52;;;691.70;1612.80;;;;;;5039006;28;20021;-77
2023/05/22 09:52:14;;;;;;;22.55;20.95;;;691.20;1612.80;;;;;;5037399;28;20026;-77
2023/05/22 09:54:54;;;;;;;25.30;23.45;;;691.50;1612.80;;;;;;5044318;28;20022;-77
2023/05/22 09:57:25;;;;;;;24.27;22.35;;;692.10;1561.60;;;;;;5042898;28;20883;-77
2023/05/22 09:59:53;;;;;;;38.92;36.33;;;692.00;1587.20;;;;;;5041351;28;20057;-77
2023/05/22 10:02:22;;;;;;;36.92;34.42;;;692.00;1510.40;;;;;;5044834;28;20025;-76
2023/05/22 10:04:51;;;;;;;39.70;37.10;;;692.10;1561.60;;;;;;5041485;28;20013;-78
2023/05/22 10:07:34;;;;;;;32.53;30.30;;;717.00;1587.20;;;;;;5045576;28;20086;-78
2023/05/22 10:10:11;;;;;;;37.72;35.13;;;717.20;1561.60;;;;;;5042299;28;20061;-77
2023/05/22 10:12:49;;;;;;;46.08;43.00;;;692.10;1510.40;;;;;;5049261;28;19998;-78
2023/05/22 10:15:17;;;;;;;40.00;37.38;;;716.90;1536.00;;;;;;5051454;28;20051;-77
2023/05/22 10:17:43;;;;;;;34.30;32.00;;;692.00;1561.60;;;;;;5043642;28;20073;-77
2023/05/22 10:20:11;;;;;;;39.97;37.17;;;717.00;1612.80;;;;;;5047717;28;20034;-77
2023/05/22 10:22:37;;;;;;;45.38;42.50;;;717.00;1536.00;;;;;;5044767;28;20082;-77
2023/05/22 10:25:04;;;;;;;49.05;45.83;;;717.00;1510.40;;;;;;5046341;28;20029;-76
2023/05/22 10:27:30;;;;;;;45.60;42.50;;;717.50;1484.80;;;;;;5045129;28;20006;-77
2023/05/22 10:30:11;;;;;;;47.88;44.47;;;717.30;1484.80;;;;;;5046959;28;20032;-78
2023/05/22 10:33:06;;;;;;;46.75;43.85;;;717.60;1484.80;;;;;;5049966;28;20074;-77
2023/05/22 10:35:42;;;;;;;43.05;40.25;;;742.60;1459.20;;;;;;5010661;28;20033;-77
2023/05/22 10:38:20;;;;;;;40.83;38.30;;;717.70;1382.40;;;;;;5044309;28;20002;-78
2023/05/22 10:40:46;;;;;;;39.75;37.28;;;717.60;1408.00;;;;;;5045897;28;20010;-79
2023/05/22 10:43:12;;;;;;;35.20;32.88;;;717.30;1433.60;;;;;;5046697;28;20004;-79
2023/05/22 10:45:38;;;;;;;33.20;30.98;;;717.30;1433.60;;;;;;5044570;28;20018;-77
2023/05/22 10:48:10;;;;;;;34.22;32.03;;;742.50;1612.80;;;;;;5045337;28;20021;-78
2023/05/22 10:50:37;;;;;;;27.67;25.83;;;742.40;1408.00;;;;;;5025713;28;20031;-78
2023/05/22 10:53:35;;;;;;;32.08;30.10;;;717.30;1408.00;;;;;;5045326;28;20045;-78
2023/05/22 10:56:12;;;;;;;26.23;24.50;;;717.10;1408.00;;;;;;4969058;29;20031;-78
2023/05/22 10:58:38;;;;;;;31.80;29.63;;;717.10;1408.00;;;;;;4971510;28;20027;-79
2023/05/22 11:01:12;;;;;;;38.05;35.45;;;742.40;1484.80;;;;;;4973296;28;20007;-78
2023/05/22 11:03:56;;;;;;;41.90;39.08;;;743.20;1408.00;;;;;;4972014;29;20015;-78
2023/05/22 11:06:31;;;;;;;;;;;768.30;1408.00;;;;;;4972266;28;20039;-77
2023/05/22 11:08:56;;;;;;;21.95;20.45;;;743.20;1382.40;;;;;;4969718;29;19966;-78
2023/05/22 11:11:26;;;;;;;15.73;14.52;;;742.90;1408.00;;;;;;4974345;28;20026;-79
2023/05/22 11:14:04;;;;;;;12.48;11.50;;;717.70;1356.80;;;;;;4994364;28;20027;-78
2023/05/22 11:16:32;;;;;;;23.52;21.63;;;742.40;1382.40;;;;;;4975147;28;20023;-78
2023/05/22 11:19:08;;;;;;;14.25;12.95;;;717.60;1382.40;;;;;;4994131;28;20031;-78
2023/05/22 11:21:44;;;;;;;20.90;19.40;;;;;;;;;;4969689;28;20025;-79
2023/05/22 11:24:15;;;;;;;11.73;10.70;;;717.70;1382.40;;;;;;4986456;28;20040;-79
2023/05/22 11:26:41;;;;;;;13.73;12.73;;;717.40;1382.40;;;;;;4980040;28;20151;-78
2023/05/22 11:29:07;;;;;;;17.63;16.27;;;717.40;1382.40;;;;;;4988001;28;20007;-78
2023/05/22 11:31:36;;;;;;;18.85;17.40;;;717.70;1382.40;;;;;;5015417;28;20021;-78
2023/05/22 11:34:02;;;;;;;14.63;13.52;;;742.50;1382.40;;;;;;5044124;28;20017;-80
2023/05/22 11:36:28;;;;;;;13.02;11.85;;;742.60;1382.40;;;;;;5044315;28;20025;-78
2023/05/22 11:38:58;;;;;;;19.25;17.83;;;717.70;1382.40;;;;;;5044937;28;20002;-78
2023/05/22 11:41:29;;;;;;;13.20;12.07;;;742.50;1433.60;;;;;;5046111;28;20446;-78
2023/05/22 11:43:54;;;;;;;17.85;16.48;;;743.20;1356.80;;;;;;5046455;28;20042;-78
2023/05/22 11:46:20;;;;;;;12.00;11.02;;;768.00;1356.80;;;;;;5043255;28;20083;-77
2023/05/22 11:48:47;;;;;;;10.95;10.07;;;743.00;1331.20;;;;;;5040963;28;20028;-76
2023/05/22 11:51:13;;;;;;;9.20;8.30;;;743.20;1280.00;;;;;;5036297;28;20119;-76
2023/05/22 11:53:40;;;;;;;8.23;7.07;;;743.20;1280.00;;;;;;5045253;28;20101;-79
2023/05/22 11:56:06;;;;;;;8.05;6.55;;;768.00;1280.00;;;;;;5041083;28;20079;-79
2023/05/22 11:58:32;;;;;;;9.48;7.70;;;742.90;1305.60;;;;;;5046647;28;20005;-78
2023/05/22 12:01:02;;;;;;;7.70;6.82;;;742.40;1331.20;;;;;;5045896;28;20017;-78
2023/05/22 12:03:29;;;;;;;7.15;6.50;;;717.70;1305.60;;;;;;5042086;28;20006;-79
2023/05/22 12:05:56;;;;;;;11.20;10.25;;;742.60;1331.20;;;;;;5039536;28;20006;-79
2023/05/22 12:08:23;;;;;;;9.48;8.68;;;742.40;1382.40;;;;;;5042173;28;20005;-78
2023/05/22 12:10:49;;;;;;;9.85;8.88;;;742.50;1382.40;;;;;;5038999;28;20020;-78
2023/05/22 12:13:25;;;;;;;9.85;9.05;;;742.90;1356.80;;;;;;5038984;28;20004;-79
2023/05/22 12:15:55;;;;;;;9.75;6.40;;;768.00;1305.60;;;;;;5035470;28;20018;-79
2023/05/22 12:18:20;;;;;;;7.75;7.03;;;768.00;1305.60;;;;;;5043631;28;20001;-79
2023/05/22 12:20:46;;;;;;;10.35;9.45;;;742.90;1331.20;;;;;;5041939;28;20017;-78
2023/05/22 12:23:21;;;;;;;12.48;11.25;;;743.30;1331.20;;;;;;5050534;28;20273;-78
2023/05/22 12:25:46;;;;;;;10.23;9.23;;;768.00;1356.80;;;;;;5035557;28;20050;-78
2023/05/22 12:28:12;;;;;;;10.63;9.82;;;768.30;1356.80;;;;;;5039926;28;20006;-77
2023/05/22 12:30:41;;;;;;;12.20;11.10;;;768.20;1331.20;;;;;;5038733;28;20029;-78
2023/05/22 12:33:12;;;;;;;8.10;7.30;;;768.70;1331.20;;;;;;5040120;28;20026;-77
2023/05/22 12:35:38;;;;;;;7.57;6.63;;;768.60;1280.00;;;;;;5044422;28;20033;-79
2023/05/22 12:38:07;;;;;;;7.10;5.60;;;768.80;1254.40;;;;;;5047649;28;20012;-78
2023/05/22 12:40:33;;;;;;;8.52;7.65;;;768.80;1228.80;;;;;;5046267;28;20085;-78
2023/05/22 12:42:58;;;;;;;9.50;8.60;;;768.00;1305.60;;;;;;5047211;28;20025;-78